Terminal Aerodrome Forecast
Issued by NWS

Home | Current Version | Previous Version | Text Only | Print | Product List | Glossary On
Versions: 1 2 3 4 5 6 7 8 9 10 11 12 13 14 15 16 17 18 19 20 21 22 23 24 25 26 27 28 29 30 31 32 33 34 35 36
000
FTUS43 KPAH 241150
TAFOWB
TAF
KOWB 241150Z 2412/2512 04006KT P6SM BKN050
     FM241700 09007KT P6SM SCT025 OVC050
      TEMPO 2417/2421 -SHRA
     FM250200 13008KT P6SM BKN050
     FM250500 19012KT P6SM SCT020 BKN035 PROB30 2505/2510 3SM SHRA
      BKN020=

USA.gov is the U.S. government's official web portal to all federal, state and local government web resources and services.